Hidden Valley, Nevada
Current Conditions -  °F | °C
As of 8:55 AM on Wednesday 26 Nov 2014 (Local Time) from KRNO Reporting Station
Scattered Clouds Scattered Clouds  
Wind Chill: 39°   Ceiling: Unl
Heat Index: 39°   Visibility: 10mi
Dew Point: 26°   Wind: 0mph
Humidity: 60%   Direction: NA
Pressure: 30.46"   Gusts: NA
Location:  39.4944°N, 119.746°W
Report Text: KRNO 261655Z 00000KT 10SM FEW200 SCT250 04/M03 A3046 RMK AO2 SLP315 T00391033
Loading
Personal Weather Stations






























Interactive Weather Map New forecast layout! Learn more

10-Day Weather Forecast

Advertisements
Track Severe Weather on mobile